Time;durP1;ratioP1;P1;durP2;ratioP2;P2;SDS_P1;SDS_P2;PMS_P1;PMS_P2;Temp;Humidity;BMP_temperature;BMP_pressure;BME280_temperature;BME280_humidity;BME280_pressure;Samples;Min_cycle;Max_cycle;Signal;HPM_P1;HPM_P2
2022/06/21 00:02:13;;;;;;;6.90;3.72;;;;;;;11.42;100.00;100653.25;5061098;28;20115;-67
2022/06/21 00:04:39;;;;;;;5.88;4.32;;;;;;;11.04;100.00;100613.03;5074851;28;20120;-67
2022/06/21 00:07:05;;;;;;;7.10;4.18;;;;;;;11.09;100.00;100650.47;5084637;28;20040;-67
2022/06/21 00:09:31;;;;;;;4.80;3.85;;;;;;;10.44;100.00;100566.88;5070367;28;20032;-67
2022/06/21 00:11:57;;;;;;;6.38;4.60;;;;;;;10.64;100.00;100618.50;5080286;28;20024;-68
2022/06/21 00:14:22;;;;;;;4.43;3.80;;;;;;;10.72;100.00;100634.75;5061971;28;20370;-67
2022/06/21 00:16:47;;;;;;;5.00;3.50;;;;;;;10.67;100.00;100634.97;5086311;28;20481;-67
2022/06/21 00:19:18;;;;;;;14.55;4.03;;;;;;;10.64;100.00;100631.63;5086940;28;20085;-67
2022/06/21 00:21:45;;;;;;;4.85;2.53;;;;;;;10.67;100.00;100647.25;5041084;28;20142;-68
2022/06/21 00:24:10;;;;;;;4.47;2.78;;;;;;;10.59;100.00;100639.72;5047198;28;20032;-67
2022/06/21 00:26:36;;;;;;;7.47;2.67;;;;;;;10.59;100.00;100646.75;5089401;28;20104;-67
2022/06/21 00:29:02;;;;;;;7.63;3.38;;;;;;;10.27;100.00;100607.03;5080879;28;20165;-68
2022/06/21 00:31:30;;;;;;;3.72;2.85;;;;;;;9.96;100.00;100580.44;5091283;28;20032;-67
2022/06/21 00:33:56;;;;;;;3.17;2.58;;;;;;;10.15;100.00;100631.25;5063104;28;20069;-68
2022/06/21 00:36:25;;;;;;;3.47;1.92;;;;;;;10.12;100.00;100633.97;5061032;28;20025;-68
2022/06/21 00:38:52;;;;;;;6.93;2.50;;;;;;;10.11;100.00;100627.00;5086135;28;20039;-68
2022/06/21 00:41:19;;;;;;;3.17;2.10;;;;;;;10.09;100.00;100615.72;5072322;28;20028;-66
2022/06/21 00:43:48;;;;;;;3.65;2.22;;;;;;;10.09;100.00;100626.22;5089621;28;20035;-67
2022/06/21 00:46:38;;;;;;;3.80;2.65;;;;;;;10.07;100.00;100624.59;5082074;28;20146;-68
2022/06/21 00:49:08;;;;;;;4.78;2.88;;;;;;;10.00;100.00;100628.41;5053350;28;20016;-67
2022/06/21 00:51:38;;;;;;;6.65;3.22;;;;;;;9.65;100.00;100566.97;5067405;28;20028;-67
2022/06/21 00:54:16;;;;;;;4.03;2.72;;;;;;;9.86;100.00;100615.91;5069497;28;20384;-67
2022/06/21 00:57:03;;;;;;;4.55;3.72;;;;;;;9.72;100.00;100624.38;5084612;28;20115;-67
2022/06/21 00:59:33;;;;;;;4.38;3.30;;;;;;;9.51;100.00;100585.94;5066667;28;20111;-67
2022/06/21 01:02:02;;;;;;;7.85;3.33;;;;;;;9.71;100.00;100630.53;5085798;28;20029;-68
2022/06/21 01:04:33;;;;;;;7.85;3.58;;;;;;;9.59;100.00;100624.97;5082730;28;20497;-67
2022/06/21 01:07:00;;;;;;;5.75;2.97;;;;;;;9.43;100.00;100616.88;5071141;28;20397;-67
2022/06/21 01:09:42;;;;;;;4.20;3.00;;;;;;;9.38;100.00;100608.34;5060679;28;20025;-69
2022/06/21 01:12:37;;;;;;;5.55;3.55;;;;;;;9.44;100.00;100621.19;5053194;28;20044;-67
2022/06/21 01:15:18;;;;;;;4.15;3.53;;;;;;;9.52;100.00;100628.75;5057585;28;20045;-67
2022/06/21 01:17:46;;;;;;;5.22;3.05;;;;;;;9.49;100.00;100639.38;5064042;28;20471;-67
2022/06/21 01:20:15;;;;;;;4.50;2.65;;;;;;;9.41;100.00;100626.56;5045907;28;20127;-67
2022/06/21 01:22:55;;;;;;;3.72;3.15;;;;;;;9.47;100.00;100628.09;5065471;28;20119;-67
2022/06/21 01:25:45;;;;;;;4.88;2.90;;;;;;;9.44;100.00;100625.59;5066584;28;20040;-67
2022/06/21 01:28:11;;;;;;;5.05;2.97;;;;;;;9.35;100.00;100616.34;5070145;28;20036;-66
2022/06/21 01:30:38;;;;;;;3.72;2.88;;;;;;;9.21;100.00;100611.69;5073854;28;20045;-67
2022/06/21 01:33:05;;;;;;;6.47;3.13;;;;;;;8.99;100.00;100579.38;5089269;28;20032;-67
2022/06/21 01:35:38;;;;;;;4.97;3.63;;;;;;;9.15;100.00;100600.59;5062729;28;20035;-66
2022/06/21 01:38:05;;;;;;;4.53;2.88;;;;;;;8.96;100.00;100566.41;5083870;28;20447;-66
2022/06/21 01:40:34;;;;;;;5.63;3.25;;;;;;;9.07;100.00;100574.69;5058343;28;20105;-66
2022/06/21 01:43:03;;;;;;;5.43;3.40;;;;;;;9.20;100.00;100583.75;5086043;28;20012;-67
2022/06/21 01:45:36;;;;;;;15.80;3.60;;;;;;;9.33;100.00;100596.38;5066058;28;20080;-67
2022/06/21 01:48:15;;;;;;;5.70;3.08;;;;;;;9.35;100.00;100594.50;5065794;28;20090;-67
2022/06/21 01:50:43;;;;;;;5.07;3.65;;;;;;;9.38;100.00;100586.50;5068058;28;20103;-67
2022/06/21 01:53:09;;;;;;;6.47;3.47;;;;;;;9.19;100.00;100545.31;5063755;28;20023;-67
2022/06/21 01:55:35;;;;;;;3.47;2.45;;;;;;;9.55;100.00;100589.28;5084713;28;20604;-67
2022/06/21 01:58:02;;;;;;;6.70;2.70;;;;;;;9.24;100.00;100543.38;5073451;28;20097;-67
2022/06/21 02:00:31;;;;;;;6.97;2.53;;;;;;;9.50;100.00;100586.84;5075927;28;20503;-67
2022/06/21 02:03:01;;;;;;;4.05;2.75;;;;;;;9.53;100.00;100578.00;5094492;28;20103;-67
2022/06/21 02:05:35;;;;;;;4.68;2.75;;;;;;;9.55;100.00;100586.66;5062615;28;20032;-67
2022/06/21 02:08:13;;;;;;;4.68;2.97;;;;;;;9.48;100.00;100561.59;5082256;28;20032;-67
2022/06/21 02:10:48;;;;;;;4.82;2.92;;;;;;;9.59;100.00;100567.25;5057765;28;20031;-67
2022/06/21 02:13:28;;;;;;;4.35;3.22;;;;;;;9.74;100.00;100584.94;5075532;28;20024;-67
2022/06/21 02:16:01;;;;;;;4.47;2.60;;;;;;;9.82;100.00;100560.97;5054104;28;20056;-68
2022/06/21 02:18:29;;;;;;;5.55;3.70;;;;;;;9.70;100.00;100529.09;5071554;28;20166;-67
2022/06/21 02:21:31;;;;;;;4.75;3.05;;;;;;;9.90;100.00;100532.63;5070614;28;20081;-66
2022/06/21 02:23:57;;;;;;;4.47;3.47;;;;;;;9.99;100.00;100534.84;5060182;28;20047;-67
2022/06/21 02:26:24;;;;;;;4.55;3.38;;;;;;;10.05;100.00;100537.16;5088714;28;20036;-67
2022/06/21 02:28:50;;;;;;;6.28;3.20;;;;;;;10.06;100.00;100545.00;5081587;28;20028;-67
2022/06/21 02:31:15;;;;;;;3.42;2.03;;;;;;;10.02;100.00;100532.06;5081604;28;20028;-67
2022/06/21 02:33:41;;;;;;;4.43;2.45;;;;;;;9.99;100.00;100542.72;5087582;28;20027;-67
2022/06/21 02:36:06;;;;;;;3.83;3.15;;;;;;;10.01;100.00;100552.22;5058584;28;20039;-67
2022/06/21 02:38:39;;;;;;;9.32;6.15;;;;;;;9.96;100.00;100548.94;5067953;28;20028;-67
2022/06/21 02:41:22;;;;;;;50.78;47.53;;;;;;;9.79;100.00;100530.47;5088031;28;20024;-67
2022/06/21 02:44:21;;;;;;;60.65;57.53;;;;;;;9.77;100.00;100533.16;5067364;28;20111;-67
2022/06/21 02:46:50;;;;;;;9.50;5.80;;;;;;;9.78;100.00;100536.66;5055735;28;20063;-67
2022/06/21 02:49:19;;;;;;;17.67;6.93;;;;;;;9.71;100.00;100532.59;5086650;28;20024;-68
2022/06/21 02:51:51;;;;;;;10.43;6.22;;;;;;;9.61;100.00;100523.41;5073394;28;20579;-67
2022/06/21 02:54:24;;;;;;;10.13;6.47;;;;;;;9.66;100.00;100555.56;5085086;28;20036;-68
2022/06/21 02:57:14;;;;;;;15.68;7.40;;;;;;;9.61;100.00;100560.16;5049618;28;20423;-67
2022/06/21 02:59:41;;;;;;;13.13;7.05;;;;;;;9.47;100.00;100531.91;5089721;28;20020;-67
2022/06/21 03:02:10;;;;;;;13.02;6.38;;;;;;;9.27;100.00;100523.19;5080094;28;20021;-67
2022/06/21 03:04:43;;;;;;;8.48;6.25;;;;;;;9.35;100.00;100557.81;5074348;28;20031;-67
2022/06/21 03:07:13;;;;;;;9.40;6.72;;;;;;;9.28;100.00;100564.22;5073007;28;20024;-67
2022/06/21 03:09:39;;;;;;;13.23;6.93;;;;;;;9.12;100.00;100564.88;5070841;28;20436;-67
2022/06/21 03:12:06;;;;;;;8.10;6.03;;;;;;;8.91;100.00;100559.66;5087269;28;20073;-67
2022/06/21 03:14:33;;;;;;;15.45;7.38;;;;;;;8.93;100.00;100569.16;5064103;28;20032;-67
2022/06/21 03:17:01;;;;;;;17.80;6.88;;;;;;;8.88;100.00;100567.63;5088583;28;20027;-67
2022/06/21 03:19:31;;;;;;;10.32;6.97;;;;;;;8.78;100.00;100575.03;5077985;28;20048;-67
2022/06/21 03:21:57;;;;;;;166.48;30.75;;;;;;;8.70;100.00;100574.47;5048577;28;20019;-67
2022/06/21 03:24:24;;;;;;;92.60;36.88;;;;;;;8.64;100.00;100548.53;5075944;28;20104;-67
2022/06/21 03:26:59;;;;;;;178.88;62.13;;;;;;;8.76;100.00;100558.50;5073549;28;20035;-67
2022/06/21 03:29:24;;;;;;;115.63;62.35;;;;;;;8.62;100.00;100547.72;5073503;28;20093;-66
2022/06/21 03:31:50;;;;;;;14.63;7.10;;;;;;;8.76;100.00;100571.59;5086941;28;20028;-67
2022/06/21 03:34:19;;;;;;;9.48;6.70;;;;;;;8.78;100.00;100582.88;5088718;28;20021;-67
2022/06/21 03:36:44;;;;;;;101.35;62.17;;;;;;;8.71;100.00;100573.56;5061408;28;20027;-66
2022/06/21 03:41:42;;;;;;;17.70;7.43;;;;;;;8.71;100.00;100574.41;5073393;28;20020;-66
2022/06/21 03:42:11;;;;;;;98.85;20.92;;;;;;;8.64;100.00;100593.03;5050146;28;20073;-67
2022/06/21 03:45:07;;;;;;;10.93;7.32;;;;;;;8.56;100.00;100566.28;5061864;28;20028;-67
2022/06/21 03:47:37;;;;;;;12.13;7.50;;;;;;;8.49;100.00;100565.69;5055301;28;20037;-67
2022/06/21 03:50:26;;;;;;;11.15;7.53;;;;;;;8.33;100.00;100555.84;5075469;28;20043;-67
2022/06/21 03:53:04;;;;;;;10.77;7.20;;;;;;;8.30;100.00;100545.50;5060472;28;20032;-67
2022/06/21 03:55:35;;;;;;;10.80;7.68;;;;;;;8.40;100.00;100557.34;5054788;28;20028;-67
2022/06/21 03:58:09;;;;;;;11.70;8.05;;;;;;;8.39;100.00;100535.53;5091650;28;20032;-67
2022/06/21 04:00:40;;;;;;;12.63;7.90;;;;;;;8.47;100.00;100548.31;5059016;28;20081;-66
2022/06/21 04:03:11;;;;;;;9.63;7.82;;;;;;;8.45;100.00;100537.91;5070735;28;20070;-67
2022/06/21 04:05:43;;;;;;;15.13;8.02;;;;;;;8.56;100.00;100547.97;5065911;28;20036;-67
2022/06/21 04:08:18;;;;;;;11.68;7.35;;;;;;;8.54;100.00;100526.22;5063707;28;20896;-67
2022/06/21 04:10:59;;;;;;;14.30;9.40;;;;;;;8.71;100.00;100532.50;5056448;28;21265;-68
2022/06/21 04:14:17;;;;;;;12.15;8.80;;;;;;;8.99;100.00;100531.38;5058832;28;20161;-67
2022/06/21 04:16:56;;;;;;;10.48;8.90;;;;;;;9.12;100.00;100517.69;5014960;28;20040;-67
2022/06/21 04:19:36;;;;;;;14.35;9.73;;;;;;;9.30;100.00;100512.56;5053622;28;20033;-67
2022/06/21 04:22:07;;;;;;;12.43;8.70;;;;;;;9.13;100.00;100451.22;5084111;28;20035;-67
2022/06/21 04:24:51;;;;;;;14.25;9.57;;;;;;;9.60;100.00;100491.09;5052112;28;20025;-67
2022/06/21 04:27:26;;;;;;;13.02;9.90;;;;;;;9.99;100.00;100501.56;5054317;28;20086;-67
2022/06/21 04:30:03;;;;;;;13.68;8.93;;;;;;;10.14;100.00;100511.38;5061441;28;20397;-67
2022/06/21 04:32:34;;;;;;;11.70;9.55;;;;;;;10.31;100.00;100515.00;5078122;28;20036;-67
2022/06/21 04:35:06;;;;;;;15.95;9.85;;;;;;;10.42;100.00;100520.59;5075009;28;20058;-67
2022/06/21 04:37:46;;;;;;;14.68;9.38;;;;;;;10.52;100.00;100521.84;5074763;28;20033;-68
2022/06/21 04:40:20;;;;;;;11.88;8.98;;;;;;;10.60;100.00;100522.34;5075742;28;20024;-67
2022/06/21 04:42:53;;;;;;;16.10;9.13;;;;;;;10.63;100.00;100514.31;5071488;28;20041;-67
2022/06/21 04:45:24;;;;;;;18.70;9.00;;;;;;;10.76;100.00;100531.19;5055116;28;20025;-67
2022/06/21 04:48:13;;;;;;;12.82;7.80;;;;;;;10.87;100.00;100539.41;5066875;28;20040;-67
2022/06/21 04:50:53;;;;;;;12.77;8.48;;;;;;;10.92;100.00;100532.13;5067672;28;20029;-67
2022/06/21 04:53:31;;;;;;;14.20;9.30;;;;;;;10.90;100.00;100512.94;5059238;28;20021;-67
2022/06/21 04:56:21;;;;;;;9.32;7.80;;;;;;;11.02;100.00;100522.00;5082899;28;20059;-67
2022/06/21 04:58:48;;;;;;;11.95;8.45;;;;;;;11.02;100.00;100517.59;5075690;28;20036;-67
2022/06/21 05:04:19;;;;;;;20.53;8.40;;;;;;;11.29;100.00;100510.06;5070316;28;20032;-67
2022/06/21 05:06:45;;;;;;;9.88;7.63;;;;;;;11.32;100.00;100506.47;5076433;28;20537;-67
2022/06/21 05:09:16;;;;;;;12.40;8.55;;;;;;;11.44;100.00;100514.56;5077772;28;20032;-67
2022/06/21 05:11:42;;;;;;;11.15;8.38;;;;;;;11.47;100.00;100524.06;5086617;28;20031;-67
2022/06/21 05:14:16;;;;;;;13.82;7.70;;;;;;;11.47;100.00;100513.53;5061171;28;20027;-67
2022/06/21 05:16:42;;;;;;;12.23;9.05;;;;;;;11.58;100.00;100519.09;5061305;28;20039;-67
2022/06/21 05:19:22;;;;;;;12.45;7.72;;;;;;;11.65;100.00;100517.84;5066410;28;20028;-67
2022/06/21 05:22:30;;;;;;;12.35;8.27;;;;;;;11.72;100.00;100527.16;5086255;28;20032;-67
2022/06/21 05:24:57;;;;;;;13.60;8.00;;;;;;;11.75;100.00;100529.63;5017553;28;20100;-67
2022/06/21 05:27:44;;;;;;;9.43;6.70;;;;;;;11.82;100.00;100531.03;5065733;28;20050;-67
2022/06/21 05:30:38;;;;;;;10.82;6.78;;;;;;;11.93;100.00;100531.28;5079364;28;20028;-67
2022/06/21 05:33:10;;;;;;;12.07;7.78;;;;;;;12.02;100.00;100543.97;5080909;28;20035;-67
2022/06/21 05:35:37;;;;;;;11.43;7.47;;;;;;;12.02;100.00;100537.84;5060479;28;20107;-67
2022/06/21 05:38:04;;;;;;;13.07;8.10;;;;;;;12.07;100.00;100547.19;5070545;28;20039;-67
2022/06/21 05:40:46;;;;;;;14.45;7.97;;;;;;;12.05;100.00;100527.16;5058966;28;20024;-67
2022/06/21 05:43:15;;;;;;;11.98;8.32;;;;;;;12.15;100.00;100539.72;5062596;28;20121;-67
2022/06/21 05:45:43;;;;;;;16.65;7.53;;;;;;;12.21;100.00;100534.13;5083382;28;20107;-67
2022/06/21 05:48:14;;;;;;;11.85;8.07;;;;;;;12.22;100.00;100525.28;5058742;28;20394;-67
2022/06/21 05:50:40;;;;;;;10.57;7.57;;;;;;;12.28;100.00;100526.72;5067428;28;20040;-67
2022/06/21 05:53:17;;;;;;;15.82;9.45;;;;;;;12.42;100.00;100542.63;5090976;28;20027;-67
2022/06/21 05:55:44;;;;;;;11.43;7.38;;;;;;;12.50;100.00;100534.31;5065322;28;20098;-67
2022/06/21 05:58:17;;;;;;;10.57;8.18;;;;;;;12.61;100.00;100542.44;5074431;28;20469;-67
2022/06/21 06:00:48;;;;;;;9.57;7.40;;;;;;;12.72;100.00;100533.00;5094696;28;20502;-67
2022/06/21 06:03:19;;;;;;;13.57;7.15;;;;;;;12.84;100.00;100534.13;5062648;28;20024;-67
2022/06/21 06:05:46;;;;;;;11.68;7.70;;;;;;;13.01;100.00;100547.16;5066424;28;20479;-67
2022/06/21 06:08:14;;;;;;;9.02;6.90;;;;;;;13.11;100.00;100543.06;5073231;28;20479;-67
2022/06/21 06:10:42;;;;;;;9.52;6.60;;;;;;;13.23;100.00;100536.25;5050652;28;20024;-67
2022/06/21 06:13:12;;;;;;;9.63;7.28;;;;;;;13.40;100.00;100543.16;5049760;28;20029;-67
2022/06/21 06:15:51;;;;;;;8.95;6.20;;;;;;;13.63;100.00;100547.91;5084556;28;20040;-67
2022/06/21 06:18:23;;;;;;;11.57;6.85;;;;;;;13.72;100.00;100542.09;5062749;28;20031;-67
2022/06/21 06:21:04;;;;;;;10.93;7.35;;;;;;;13.82;100.00;100551.16;5064989;28;20038;-67
2022/06/21 06:23:35;;;;;;;7.65;5.55;;;;;;;13.90;100.00;100554.16;5043240;28;20094;-67
2022/06/21 06:26:05;;;;;;;8.93;6.07;;;;;;;14.00;100.00;100552.66;5049871;28;20029;-67
2022/06/21 06:28:51;;;;;;;13.68;6.97;;;;;;;14.18;100.00;100554.16;5065626;28;20039;-67
2022/06/21 06:31:23;;;;;;;9.90;5.80;;;;;;;14.32;100.00;100540.94;5089929;28;20059;-67
2022/06/21 06:33:55;;;;;;;11.35;6.15;;;;;;;14.47;100.00;100543.56;5074043;28;20028;-67
2022/06/21 06:36:30;;;;;;;10.40;5.97;;;;;;;14.46;100.00;100533.94;5078467;28;20024;-67
2022/06/21 06:38:58;;;;;;;21.50;6.45;;;;;;;14.53;100.00;100551.13;5080569;28;20032;-67
2022/06/21 06:41:33;;;;;;;16.80;6.53;;;;;;;14.49;100.00;100552.25;5054019;28;20024;-67
2022/06/21 06:44:04;;;;;;;8.75;6.40;;;;;;;14.55;100.00;100562.44;5078920;28;20031;-68
2022/06/21 06:46:35;;;;;;;11.32;6.88;;;;;;;14.52;100.00;100546.78;5066299;28;20504;-67
2022/06/21 06:49:24;;;;;;;9.65;6.80;;;;;;;14.53;100.00;100544.00;5085125;28;20478;-67
2022/06/21 06:51:52;;;;;;;8.95;5.43;;;;;;;14.52;100.00;100542.34;5050325;28;20021;-67
2022/06/21 06:54:24;;;;;;;7.85;6.00;;;;;;;14.50;100.00;100535.44;5087827;28;20038;-67
2022/06/21 06:56:58;;;;;;;7.50;5.00;;;;;;;14.69;100.00;100544.75;5062717;28;20024;-67
2022/06/21 06:59:25;;;;;;;10.45;6.82;;;;;;;14.70;100.00;100540.31;5061293;28;20452;-67
2022/06/21 07:01:58;;;;;;;6.72;4.88;;;;;;;14.72;100.00;100536.59;5087492;28;20025;-67
2022/06/21 07:04:27;;;;;;;9.05;5.60;;;;;;;14.93;100.00;100550.22;5068512;28;20035;-67
2022/06/21 07:06:56;;;;;;;12.77;5.38;;;;;;;14.94;100.00;100554.56;5069108;28;20475;-67
2022/06/21 07:09:25;;;;;;;9.93;6.38;;;;;;;15.03;100.00;100569.84;5085476;28;20085;-68
2022/06/21 07:11:54;;;;;;;9.07;6.15;;;;;;;15.06;100.00;100572.28;5079162;28;20074;-67
2022/06/21 07:14:22;;;;;;;10.13;6.07;;;;;;;14.95;100.00;100544.81;5082609;28;20107;-67
2022/06/21 07:16:51;;;;;;;11.00;6.45;;;;;;;15.24;100.00;100560.47;5079387;28;20119;-68
2022/06/21 07:19:17;;;;;;;9.98;6.30;;;;;;;15.26;100.00;100550.63;5057710;28;20025;-67
2022/06/21 07:21:42;;;;;;;7.13;4.65;;;;;;;15.35;100.00;100550.00;5083177;28;20081;-67
2022/06/21 07:24:15;;;;;;;8.80;5.38;;;;;;;15.51;100.00;100546.38;5072906;28;20060;-68
2022/06/21 07:26:47;;;;;;;12.63;6.22;;;;;;;15.73;100.00;100549.22;5086323;28;20036;-68
2022/06/21 07:29:24;;;;;;;10.13;6.80;;;;;;;15.78;100.00;100574.44;5064516;28;20038;-68
2022/06/21 07:31:57;;;;;;;9.73;5.60;;;;;;;15.87;100.00;100566.81;5073903;28;20028;-67
2022/06/21 07:34:28;;;;;;;7.85;5.82;;;;;;;16.08;100.00;100554.72;5064566;28;20085;-68
2022/06/21 07:37:14;;;;;;;10.90;6.47;;;;;;;16.26;100.00;100550.75;5071524;28;20112;-67
2022/06/21 07:39:43;;;;;;;8.25;5.40;;;;;;;16.38;100.00;100541.94;5064833;28;20486;-68
2022/06/21 07:42:14;;;;;;;14.45;6.25;;;;;;;16.46;100.00;100549.38;5085778;28;20028;-67
2022/06/21 07:44:49;;;;;;;12.48;5.82;;;;;;;16.45;100.00;100537.03;5046905;28;20032;-68
2022/06/21 07:47:17;;;;;;;;;;;;;;;16.56;100.00;100545.13;5054905;28;20055;-68
2022/06/21 07:49:48;;;;;;;11.25;5.28;;;;;;;16.55;100.00;100532.78;5081561;28;19908;-68
2022/06/21 07:52:24;;;;;;;8.32;5.43;;;;;;;16.65;100.00;100528.53;5047751;28;20027;-68
2022/06/21 07:54:58;;;;;;;9.52;5.20;;;;;;;16.76;100.00;100531.25;5068400;28;20037;-68
2022/06/21 07:57:31;;;;;;;14.07;5.87;;;;;;;16.74;100.00;100517.22;5065846;28;20036;-67
2022/06/21 08:00:05;;;;;;;8.70;5.78;;;;;;;16.78;100.00;100513.38;5088917;28;20093;-67
2022/06/21 08:08:15;;;;;;;6.97;4.63;;;;;;;16.73;100.00;100486.31;5047031;28;20036;-67
2022/06/21 08:10:56;;;;;;;7.95;5.20;;;;;;;16.81;100.00;100497.22;5072234;28;20106;-67
2022/06/21 08:13:21;;;;;;;11.82;4.85;;;;;;;16.67;100.00;100478.81;5089815;28;20100;-67
2022/06/21 08:15:51;;;;;;;7.03;4.53;;;;;;;16.85;100.00;100494.25;5084483;28;20439;-67
2022/06/21 08:18:27;;;;;;;7.78;4.57;;;;;;;16.96;100.00;100492.59;5085221;28;20036;-67
2022/06/21 08:21:06;;;;;;;19.85;5.65;;;;;;;17.08;100.00;100483.69;5082456;28;20081;-67
2022/06/21 08:23:38;;;;;;;8.65;4.63;;;;;;;17.31;100.00;100491.59;5056869;28;20037;-67
2022/06/21 08:26:09;;;;;;;6.43;4.32;;;;;;;17.35;100.00;100466.50;5058890;28;20110;-67
2022/06/21 08:28:42;;;;;;;10.25;4.95;;;;;;;17.64;100.00;100477.53;5073219;28;20032;-67
2022/06/21 08:31:12;;;;;;;8.77;5.00;;;;;;;17.63;100.00;100475.03;5073881;28;20111;-67
2022/06/21 08:33:42;;;;;;;8.95;5.10;;;;;;;17.66;100.00;100469.47;5069322;28;20118;-68
2022/06/21 08:36:25;;;;;;;6.45;4.57;;;;;;;17.80;100.00;100471.88;5082424;28;20100;-67
2022/06/21 08:38:53;;;;;;;5.80;4.25;;;;;;;17.96;100.00;100467.03;5056537;28;20359;-67
2022/06/21 08:41:56;;;;;;;10.75;4.82;;;;;;;17.95;100.00;100441.41;5093239;28;20089;-67
2022/06/21 08:44:36;;;;;;;6.93;4.72;;;;;;;18.13;100.00;100447.94;5045992;28;20191;-67
2022/06/21 08:47:07;;;;;;;6.47;4.70;;;;;;;18.25;100.00;100438.94;5086243;28;20036;-67
2022/06/21 08:49:36;;;;;;;7.57;5.00;;;;;;;18.33;100.00;100433.00;5092814;28;20149;-68
2022/06/21 08:52:20;;;;;;;7.13;4.35;;;;;;;18.32;100.00;100426.84;5072851;28;20030;-68
2022/06/21 08:55:03;;;;;;;9.55;4.18;;;;;;;18.31;100.00;100433.16;5068977;28;20030;-67
2022/06/21 08:57:44;;;;;;;7.55;3.92;;;;;;;18.37;100.00;100448.59;5085882;28;20478;-68
2022/06/21 09:00:49;;;;;;;13.57;4.35;;;;;;;18.45;100.00;100447.97;5038630;28;20028;-68
2022/06/21 09:03:20;;;;;;;;;;;;;;;18.64;100.00;100442.00;5011827;28;20065;-67
2022/06/21 09:06:07;;;;;;;171.90;22.73;;;;;;;18.78;100.00;100439.91;5044503;28;19923;-67
2022/06/21 09:08:47;;;;;;;9.73;7.68;;;;;;;18.83;100.00;100447.47;5085976;28;20482;-67
2022/06/21 09:11:36;;;;;;;41.20;25.13;;;;;;;18.83;100.00;100442.16;5069238;28;20100;-67
2022/06/21 09:14:18;;;;;;;181.93;102.10;;;;;;;18.80;100.00;100426.44;5041205;28;20033;-68
2022/06/21 09:17:08;;;;;;;426.77;89.35;;;;;;;19.06;100.00;100429.59;5057343;28;20032;-68
2022/06/21 09:19:54;;;;;;;7.20;3.90;;;;;;;19.13;100.00;100414.78;5064430;28;20068;-67
2022/06/21 09:22:59;;;;;;;8.43;6.00;;;;;;;19.21;100.00;100418.44;5058188;28;20025;-67
2022/06/21 09:25:36;;;;;;;797.25;83.40;;;;;;;19.28;100.00;100408.97;5049962;28;20040;-67
2022/06/21 09:28:09;;;;;;;1999.90;999.90;;;;;;;19.24;100.00;100404.00;5064897;28;20490;-67
2022/06/21 09:31:02;;;;;;;5.78;3.80;;;;;;;19.10;100.00;100391.03;5086894;28;20504;-67
2022/06/21 09:33:56;;;;;;;5.45;2.53;;;;;;;19.11;100.00;100398.06;5039636;28;20505;-67
2022/06/21 09:36:39;;;;;;;6.97;2.97;;;;;;;19.17;100.00;100402.84;5054232;28;20117;-67
2022/06/21 09:39:17;;;;;;;5.15;2.72;;;;;;;19.16;100.00;100401.19;5058264;28;20033;-68
2022/06/21 09:42:00;;;;;;;7.93;2.40;;;;;;;19.18;100.00;100400.06;5069042;28;20482;-67
2022/06/21 09:44:48;;;;;;;7.28;3.15;;;;;;;19.14;100.00;100411.09;5093826;28;20058;-67
2022/06/21 09:47:35;;;;;;;7.40;3.88;;;;;;;19.17;100.00;100413.50;4997120;28;2090127;-68
2022/06/21 09:50:31;;;;;;;7.18;3.50;;;;;;;19.18;100.00;100413.38;5086547;28;20054;-68
2022/06/21 09:53:06;;;;;;;8.45;3.03;;;;;;;19.30;100.00;100424.81;5044632;28;20028;-68
2022/06/21 09:55:38;;;;;;;5.25;3.50;;;;;;;19.41;100.00;100426.56;5036454;28;20442;-68
2022/06/21 09:58:15;;;;;;;4.80;3.08;;;;;;;19.43;100.00;100419.31;5085816;28;20036;-67
2022/06/21 10:00:43;;;;;;;7.45;3.30;;;;;;;19.45;100.00;100410.19;5082736;28;20032;-67
2022/06/21 10:03:19;;;;;;;5.90;3.42;;;;;;;19.55;100.00;100396.91;5083293;28;20398;-67
2022/06/21 10:06:19;;;;;;;5.68;3.08;;;;;;;19.62;100.00;100403.41;5076151;28;20075;-67
2022/06/21 10:09:22;;;;;;;8.15;2.58;;;;;;;19.66;100.00;100394.16;5076904;28;20055;-67
2022/06/21 10:12:22;;;;;;;11.70;2.75;;;;;;;19.76;100.00;100398.53;5083659;28;20082;-67
2022/06/21 10:15:17;;;;;;;7.03;3.40;;;;;;;20.00;100.00;100411.53;5045002;28;20063;-67
2022/06/21 10:18:19;;;;;;;5.28;3.20;;;;;;;20.01;100.00;100405.19;5069079;28;20028;-67
2022/06/21 10:20:48;;;;;;;6.18;3.25;;;;;;;19.97;100.00;100419.81;5023646;28;20116;-68
2022/06/21 10:23:32;;;;;;;5.22;3.15;;;;;;;19.90;100.00;100413.31;5074246;28;20032;-68
2022/06/21 10:26:22;;;;;;;6.03;3.60;;;;;;;19.78;100.00;100409.91;5060999;28;20066;-67
2022/06/21 10:29:05;;;;;;;7.35;3.70;;;;;;;19.70;100.00;100412.41;5074067;28;20124;-67
2022/06/21 10:31:39;;;;;;;5.50;3.17;;;;;;;19.67;100.00;100417.19;5088491;28;20027;-67
2022/06/21 10:34:13;;;;;;;;;;;;;;;19.79;100.00;100426.75;5094133;28;20537;-68
2022/06/21 10:37:07;;;;;;;8.13;3.00;;;;;;;19.86;100.00;100418.09;5078906;28;19919;-68
2022/06/21 10:39:41;;;;;;;6.18;2.70;;;;;;;20.01;100.00;100421.19;5067331;28;20097;-67
2022/06/21 10:42:52;;;;;;;9.13;3.70;;;;;;;19.98;100.00;100399.28;5073484;28;20531;-67
2022/06/21 10:45:50;;;;;;;8.07;3.03;;;;;;;19.98;96.54;100423.28;5070004;28;20036;-68
2022/06/21 10:48:45;;;;;;;6.03;3.38;;;;;;;19.87;98.45;100410.94;5066852;28;20063;-68
2022/06/21 10:51:33;;;;;;;6.43;2.67;;;;;;;19.99;97.48;100422.31;5041713;28;20374;-67
2022/06/21 10:54:23;;;;;;;6.85;3.33;;;;;;;20.01;92.93;100426.53;5082446;28;20033;-67
2022/06/21 10:57:09;;;;;;;6.97;2.97;;;;;;;19.97;94.98;100421.63;5075991;28;20068;-67
2022/06/21 11:02:58;;;;;;;8.27;4.50;;;;;;;20.31;95.19;100415.81;5079005;28;20032;-67
2022/06/21 11:05:36;;;;;;;4.72;3.05;;;;;;;20.23;93.55;100401.47;5067004;28;20036;-67
2022/06/21 11:08:18;;;;;;;48.20;6.65;;;;;;;20.34;91.52;100420.91;5074492;28;20040;-67
2022/06/21 11:10:49;;;;;;;9.48;4.38;;;;;;;20.34;91.44;100415.56;5071745;28;20024;-66
2022/06/21 11:13:17;;;;;;;9.38;3.67;;;;;;;19.92;90.02;100416.69;5063048;28;20470;-66
2022/06/21 11:16:09;;;;;;;8.52;3.80;;;;;;;19.77;92.09;100391.41;5065656;28;20016;-67
2022/06/21 11:18:55;;;;;;;8.85;3.33;;;;;;;20.11;90.67;100416.72;5051043;28;20039;-67
2022/06/21 11:21:24;;;;;;;6.10;3.80;;;;;;;20.13;87.55;100409.44;5074041;28;20039;-67
2022/06/21 11:23:59;;;;;;;6.20;3.20;;;;;;;20.21;97.03;100403.44;5090104;28;20572;-67
2022/06/21 11:26:45;;;;;;;7.15;3.25;;;;;;;20.46;94.57;100415.41;5086903;28;20032;-67
2022/06/21 11:29:43;;;;;;;8.07;3.60;;;;;;;20.62;91.15;100405.00;5082143;28;20035;-66
2022/06/21 11:32:26;;;;;;;7.68;3.80;;;;;;;20.86;91.01;100392.06;5066944;28;20036;-67
2022/06/21 11:35:19;;;;;;;6.60;3.60;;;;;;;21.29;88.87;100394.28;5067522;28;20102;-66
2022/06/21 11:37:50;;;;;;;9.38;3.50;;;;;;;22.11;91.08;100395.16;5054550;28;20495;-67
2022/06/21 11:40:38;;;;;;;5.60;3.60;;;;;;;22.86;81.33;100385.84;5058550;28;20033;-66
2022/06/21 11:43:18;;;;;;;7.93;3.97;;;;;;;22.84;82.98;100390.53;5071203;28;20108;-67
2022/06/21 11:45:54;;;;;;;6.07;3.63;;;;;;;22.49;79.71;100401.25;5078370;28;20025;-67
2022/06/21 11:48:28;;;;;;;9.00;4.43;;;;;;;22.68;79.42;100407.31;5065760;28;20032;-67
2022/06/21 11:50:53;;;;;;;9.85;4.00;;;;;;;22.90;81.58;100406.00;5057153;28;20028;-67
2022/06/21 11:53:28;;;;;;;8.98;3.85;;;;;;;23.12;81.10;100400.13;5080132;28;20065;-67
2022/06/21 11:56:03;;;;;;;;;;;;;;;23.56;81.98;100398.22;5075836;28;20035;-67
2022/06/21 11:58:38;;;;;;;7.78;4.50;;;;;;;24.03;74.95;100389.72;5027626;28;19978;-67
2022/06/21 12:01:28;;;;;;;8.20;3.80;;;;;;;24.92;76.45;100388.00;5065798;28;20098;-67
2022/06/21 12:04:04;;;;;;;9.52;3.30;;;;;;;26.43;73.05;100394.03;5050051;28;20515;-66
2022/06/21 12:06:51;;;;;;;8.02;3.53;;;;;;;27.31;69.60;100392.47;5085045;28;20028;-67
2022/06/21 12:09:22;;;;;;;9.73;4.22;;;;;;;27.82;65.10;100389.88;5071550;28;20028;-66